Time;durP1;ratioP1;P1;durP2;ratioP2;P2;SDS_P1;SDS_P2;PMS_P1;PMS_P2;Temp;Humidity;BMP_temperature;BMP_pressure;BME280_temperature;BME280_humidity;BME280_pressure;Samples;Min_cycle;Max_cycle;Signal;HPM_P1;HPM_P2
2021/11/01 00:02:04;;;;;;;82.03;35.13;;;;;;;;;;4989772;28;20056;-74
2021/11/01 00:04:30;;;;;;;80.50;35.37;;;;;;;;;;4991784;28;20482;-73
2021/11/01 00:06:56;;;;;;;83.77;36.90;;;;;;;;;;4991663;28;20030;-73
2021/11/01 00:09:21;;;;;;;76.27;36.43;;;;;;;;;;4990801;28;20026;-74
2021/11/01 00:11:49;;;;;;;80.03;36.43;;;;;;;;;;5006392;28;20034;-73
2021/11/01 00:14:14;;;;;;;92.37;40.90;;;;;;;;;;4989845;28;20034;-73
2021/11/01 00:16:41;;;;;;;92.47;40.43;;;;;;;;;;4991007;28;20458;-73
2021/11/01 00:19:06;;;;;;;83.53;37.53;;;;;;;;;;4990702;28;20030;-73
2021/11/01 00:21:33;;;;;;;81.73;38.53;;;;;;;;;;4989887;28;20450;-72
2021/11/01 00:23:58;;;;;;;88.90;39.97;;;;;;;;;;4990618;28;20375;-73
2021/11/01 00:26:24;;;;;;;89.93;40.43;;;;;;;;;;5006092;28;20033;-73
2021/11/01 00:28:49;;;;;;;84.10;39.07;;;;;;;;;;5005281;28;20446;-75
2021/11/01 00:31:15;;;;;;;97.17;41.00;;;;;;;;;;4990999;28;20034;-74
2021/11/01 00:33:41;;;;;;;90.57;40.47;;;;;;;;;;4990998;28;20061;-73
2021/11/01 00:36:07;;;;;;;90.23;39.53;;;;;;;;;;4990798;28;20026;-72
2021/11/01 00:38:34;;;;;;;83.77;39.60;;;;;;;;;;4990956;28;20034;-72
2021/11/01 00:41:01;;;;;;;78.80;38.37;;;;;;;;;;4991272;28;20030;-73
2021/11/01 00:43:27;;;;;;;84.80;38.10;;;;;;;;;;4990643;28;20518;-73
2021/11/01 00:45:53;;;;;;;82.27;37.97;;;;;;;;;;4989551;28;20037;-73
2021/11/01 00:48:19;;;;;;;80.87;37.23;;;;;;;;;;4990413;28;20416;-73
2021/11/01 00:50:45;;;;;;;93.83;39.17;;;;;;;;;;4989827;28;20121;-72
2021/11/01 00:53:11;;;;;;;80.63;38.13;;;;;;;;;;4990352;28;20026;-73
2021/11/01 00:58:16;;;;;;;80.20;39.30;;;;;;;;;;4990915;28;20355;-74
2021/11/01 01:00:42;;;;;;;82.87;39.60;;;;;;;;;;4990476;28;20037;-74
2021/11/01 01:03:10;;;;;;;71.43;37.63;;;;;;;;;;4990453;28;20026;-74
2021/11/01 01:05:36;;;;;;;88.07;39.97;;;;;;;;;;5005256;28;20026;-73
2021/11/01 01:08:02;;;;;;;82.10;37.27;;;;;;;;;;4990159;28;20547;-73
2021/11/01 01:10:27;;;;;;;79.87;39.87;;;;;;;;;;4990141;28;20037;-75
2021/11/01 01:12:53;;;;;;;75.67;36.37;;;;;;;;;;4990197;28;20089;-73
2021/11/01 01:15:25;;;;;;;86.03;37.73;;;;;;;;;;5005147;28;20029;-73
2021/11/01 01:17:51;;;;;;;86.17;38.50;;;;;;;;;;4989945;28;20034;-73
2021/11/01 01:20:20;;;;;;;80.97;37.20;;;;;;;;;;4989961;28;20256;-73
2021/11/01 01:22:47;;;;;;;82.03;36.87;;;;;;;;;;5002186;28;20039;-73
2021/11/01 01:27:45;;;;;;;79.22;38.30;;;;;;;;;;4990400;28;20026;-74
2021/11/01 01:30:12;;;;;;;86.70;38.67;;;;;;;;;;4989805;28;20060;-73
2021/11/01 01:32:38;;;;;;;83.67;41.30;;;;;;;;;;5007354;28;20027;-72
2021/11/01 01:35:04;;;;;;;79.40;39.80;;;;;;;;;;4995010;28;20417;-73
2021/11/01 01:37:30;;;;;;;82.33;37.60;;;;;;;;;;4995776;28;20030;-72
2021/11/01 01:39:55;;;;;;;100.37;40.47;;;;;;;;;;5007801;28;20036;-74
2021/11/01 01:42:21;;;;;;;87.33;41.70;;;;;;;;;;4988660;28;20057;-73
2021/11/01 01:44:46;;;;;;;85.70;40.97;;;;;;;;;;4989839;28;20117;-74
2021/11/01 01:47:12;;;;;;;77.33;38.63;;;;;;;;;;4969422;28;20038;-74
2021/11/01 01:49:37;;;;;;;85.50;39.27;;;;;;;;;;4982054;28;20030;-74
2021/11/01 01:52:05;;;;;;;87.17;41.20;;;;;;;;;;4990416;28;20026;-73
2021/11/01 01:54:30;;;;;;;89.83;41.37;;;;;;;;;;5005239;28;20069;-74
2021/11/01 01:56:56;;;;;;;89.23;39.87;;;;;;;;;;4990410;28;20072;-73
2021/11/01 01:59:22;;;;;;;88.10;40.57;;;;;;;;;;5004614;28;20022;-72
2021/11/01 02:01:49;;;;;;;89.57;41.53;;;;;;;;;;5005254;28;20035;-73
2021/11/01 02:04:18;;;;;;;90.67;40.97;;;;;;;;;;4985876;28;20026;-73
2021/11/01 02:07:16;;;;;;;90.73;40.03;;;;;;;;;;4988775;28;20026;-74
2021/11/01 02:09:51;;;;;;;80.60;37.67;;;;;;;;;;4969402;28;20043;-74
2021/11/01 02:12:20;;;;;;;91.67;38.33;;;;;;;;;;4980762;28;20030;-73
2021/11/01 02:14:59;;;;;;;77.60;35.17;;;;;;;;;;5005072;28;20034;-73
2021/11/01 02:17:28;;;;;;;79.47;35.37;;;;;;;;;;4988299;28;20475;-73
2021/11/01 02:19:58;;;;;;;83.27;35.87;;;;;;;;;;4975809;28;20477;-72
2021/11/01 02:22:58;;;;;;;81.20;34.67;;;;;;;;;;4985430;28;20049;-73
2021/11/01 02:25:39;;;;;;;82.63;35.40;;;;;;;;;;4970175;28;20077;-73
2021/11/01 02:28:06;;;;;;;79.77;36.97;;;;;;;;;;4982228;28;20383;-73
2021/11/01 02:30:32;;;;;;;81.40;37.17;;;;;;;;;;4989962;28;20426;-73
2021/11/01 02:32:58;;;;;;;74.53;37.20;;;;;;;;;;4989418;28;20026;-74
2021/11/01 02:35:24;;;;;;;79.30;36.23;;;;;;;;;;5003594;28;20035;-74
2021/11/01 02:37:50;;;;;;;81.53;36.80;;;;;;;;;;5004765;28;20034;-74
2021/11/01 02:40:15;;;;;;;86.20;40.07;;;;;;;;;;4989491;28;20033;-73
2021/11/01 02:42:41;;;;;;;81.53;37.20;;;;;;;;;;4991699;28;20022;-73
2021/11/01 02:45:12;;;;;;;80.00;38.13;;;;;;;;;;4993085;28;20390;-73
2021/11/01 02:47:39;;;;;;;81.07;37.95;;;;;;;;;;4992709;28;20056;-73
2021/11/01 02:50:08;;;;;;;85.90;40.30;;;;;;;;;;4993012;28;20045;-73
2021/11/01 02:52:34;;;;;;;83.77;38.77;;;;;;;;;;4992708;28;20537;-73
2021/11/01 02:55:01;;;;;;;81.47;37.90;;;;;;;;;;4993025;28;20030;-73
2021/11/01 02:57:27;;;;;;;78.53;37.10;;;;;;;;;;4992734;28;20058;-73
2021/11/01 02:59:52;;;;;;;77.67;37.03;;;;;;;;;;4992486;28;20724;-74
2021/11/01 03:02:18;;;;;;;84.00;38.27;;;;;;;;;;4991121;28;20474;-73
2021/11/01 03:04:44;;;;;;;81.53;38.07;;;;;;;;;;4993080;28;20109;-73
2021/11/01 03:07:10;;;;;;;82.13;37.97;;;;;;;;;;4992704;28;20383;-73
2021/11/01 03:09:39;;;;;;;88.33;39.27;;;;;;;;;;4992444;28;20322;-73
2021/11/01 03:12:08;;;;;;;93.90;39.30;;;;;;;;;;5007724;28;20026;-73
2021/11/01 03:14:42;;;;;;;80.63;37.30;;;;;;;;;;4992619;28;20034;-73
2021/11/01 03:17:11;;;;;;;83.47;39.40;;;;;;;;;;4991903;28;20030;-73
2021/11/01 03:19:41;;;;;;;80.30;37.70;;;;;;;;;;5007200;28;20482;-74
2021/11/01 03:22:06;;;;;;;91.83;39.87;;;;;;;;;;4990793;28;20096;-74
2021/11/01 03:24:39;;;;;;;88.63;37.23;;;;;;;;;;5007528;28;20061;-74
2021/11/01 03:27:07;;;;;;;88.00;37.80;;;;;;;;;;5007468;28;20030;-72
2021/11/01 03:29:34;;;;;;;89.43;39.60;;;;;;;;;;4992461;28;20068;-74
2021/11/01 03:32:02;;;;;;;89.27;38.83;;;;;;;;;;4992520;28;20473;-74
2021/11/01 03:34:29;;;;;;;87.87;37.20;;;;;;;;;;4990281;28;20046;-73
2021/11/01 03:37:01;;;;;;;82.90;38.73;;;;;;;;;;5003765;28;20084;-73
2021/11/01 03:39:27;;;;;;;90.20;38.87;;;;;;;;;;4972795;28;20089;-74
2021/11/01 03:41:53;;;;;;;87.93;40.27;;;;;;;;;;4993988;28;20042;-74
2021/11/01 03:44:26;;;;;;;91.00;40.80;;;;;;;;;;4992720;28;20029;-73
2021/11/01 03:46:55;;;;;;;92.97;40.20;;;;;;;;;;4991746;28;20049;-74
2021/11/01 03:49:23;;;;;;;92.67;40.23;;;;;;;;;;4993592;28;20039;-73
2021/11/01 03:54:17;;;;;;;79.40;40.10;;;;;;;;;;4973467;28;20507;-73
2021/11/01 03:56:44;;;;;;;89.67;38.60;;;;;;;;;;4971298;28;20026;-73
2021/11/01 03:59:11;;;;;;;86.37;41.03;;;;;;;;;;4989379;28;20040;-73
2021/11/01 04:01:39;;;;;;;90.70;39.90;;;;;;;;;;4991339;28;20038;-73
2021/11/01 04:04:07;;;;;;;92.60;39.87;;;;;;;;;;4991730;28;20026;-73
2021/11/01 04:06:32;;;;;;;91.87;39.80;;;;;;;;;;4991616;28;20117;-74
2021/11/01 04:08:59;;;;;;;98.87;40.43;;;;;;;;;;4990046;28;20117;-73
2021/11/01 04:11:25;;;;;;;94.13;38.53;;;;;;;;;;4990166;28;20533;-74
2021/11/01 04:14:02;;;;;;;84.63;38.77;;;;;;;;;;4990362;28;20507;-73
2021/11/01 04:16:48;;;;;;;98.27;39.63;;;;;;;;;;4989722;28;20022;-74
2021/11/01 04:21:42;;;;;;;85.00;39.07;;;;;;;;;;4990925;28;20085;-73
2021/11/01 04:24:08;;;;;;;90.20;38.80;;;;;;;;;;5006506;28;20030;-74
2021/11/01 04:26:35;;;;;;;83.03;37.83;;;;;;;;;;4991175;28;20026;-73
2021/11/01 04:29:07;;;;;;;92.67;39.23;;;;;;;;;;4991156;28;20088;-73
2021/11/01 04:31:37;;;;;;;90.20;39.87;;;;;;;;;;5006075;28;20030;-75
2021/11/01 04:36:50;;;;;;;87.20;38.47;;;;;;;;;;4971190;28;20427;-74
2021/11/01 04:40:05;;;;;;;94.37;39.97;;;;;;;;;;4971974;28;20525;-73
2021/11/01 04:42:34;;;;;;;80.47;37.00;;;;;;;;;;4968766;28;20077;-74
2021/11/01 04:53:03;;;;;;;88.63;38.13;;;;;;;;;;4991455;28;20080;-74
2021/11/01 04:55:29;;;;;;;100.50;43.27;;;;;;;;;;5000977;28;20113;-74
2021/11/01 04:57:57;;;;;;;86.87;38.97;;;;;;;;;;4981322;28;20053;-72
2021/11/01 05:00:23;;;;;;;97.83;41.43;;;;;;;;;;4989457;28;20057;-74
2021/11/01 05:02:57;;;;;;;90.90;40.37;;;;;;;;;;5002439;28;20529;-72
2021/11/01 05:05:23;;;;;;;89.77;37.50;;;;;;;;;;4980675;28;20058;-74
2021/11/01 05:07:49;;;;;;;92.37;39.20;;;;;;;;;;4981446;28;20422;-73
2021/11/01 05:10:25;;;;;;;90.43;38.13;;;;;;;;;;4971522;28;20031;-72
2021/11/01 05:12:51;;;;;;;82.13;38.83;;;;;;;;;;4986024;28;20529;-74
2021/11/01 05:15:34;;;;;;;83.17;39.47;;;;;;;;;;4985974;28;20023;-73
2021/11/01 05:18:27;;;;;;;98.67;40.17;;;;;;;;;;4971027;28;20118;-73
2021/11/01 05:21:18;;;;;;;93.97;39.40;;;;;;;;;;4971160;28;20038;-74
2021/11/01 05:23:51;;;;;;;90.67;38.17;;;;;;;;;;4985654;28;20034;-73
2021/11/01 05:29:05;;;;;;;89.20;37.67;;;;;;;;;;4990767;28;20037;-73
2021/11/01 05:31:31;;;;;;;89.07;39.40;;;;;;;;;;5005236;28;20062;-74
2021/11/01 05:34:30;;;;;;;85.17;37.80;;;;;;;;;;4988793;28;20054;-74
2021/11/01 05:36:49;;;;;;;80.25;37.72;;;;;;;;;;4989445;28;20042;-73
2021/11/01 05:39:14;;;;;;;87.17;37.67;;;;;;;;;;4985062;28;20034;-74
2021/11/01 05:41:41;;;;;;;87.47;39.40;;;;;;;;;;4974561;28;20157;-74
2021/11/01 05:44:08;;;;;;;95.27;40.10;;;;;;;;;;5002496;28;20054;-71
2021/11/01 05:46:35;;;;;;;81.93;39.27;;;;;;;;;;4975780;28;20577;-73
2021/11/01 05:49:03;;;;;;;103.73;45.07;;;;;;;;;;4986348;28;20382;-73
2021/11/01 05:51:29;;;;;;;88.30;38.33;;;;;;;;;;4995083;28;20028;-73
2021/11/01 05:53:59;;;;;;;85.80;40.17;;;;;;;;;;4985388;28;20038;-73
2021/11/01 06:14:33;;;;;;;80.50;37.43;;;;;;;;;;4979881;28;20708;-73
2021/11/01 06:17:01;;;;;;;87.90;36.80;;;;;;;;;;4988754;28;20109;-72
2021/11/01 06:19:26;;;;;;;93.97;38.37;;;;;;;;;;4989941;28;20034;-72
2021/11/01 06:21:53;;;;;;;89.00;40.27;;;;;;;;;;4998216;28;20038;-73
2021/11/01 06:24:38;;;;;;;81.60;37.70;;;;;;;;;;4989105;28;20029;-74
2021/11/01 06:27:09;;;;;;;80.93;38.57;;;;;;;;;;5005556;28;20041;-72
2021/11/01 06:29:45;;;;;;;83.90;36.87;;;;;;;;;;4988718;28;20022;-74
2021/11/01 06:32:17;;;;;;;78.13;36.90;;;;;;;;;;4990926;28;20037;-72
2021/11/01 06:51:09;;;;;;;83.07;38.63;;;;;;;;;;4995677;28;20112;-72
2021/11/01 06:56:35;;;;;;;88.60;40.53;;;;;;;;;;4982318;28;20030;-72
2021/11/01 07:15:25;;;;;;;97.70;41.57;;;;;;;;;;4989056;28;20540;-74
2021/11/01 07:18:01;;;;;;;88.10;41.50;;;;;;;;;;4987243;28;20042;-73
2021/11/01 07:23:35;;;;;;;94.73;39.80;;;;;;;;;;4992026;28;20049;-74
2021/11/01 08:28:26;;;;;;;82.90;39.30;;;;;;;;;;4985443;28;20492;-73
2021/11/01 08:39:18;;;;;;;89.00;40.50;;;;;;;;;;4984894;28;20070;-73
2021/11/01 08:44:58;;;;;;;88.90;40.47;;;;;;;;;;4985276;28;20365;-74
2021/11/01 09:06:07;;;;;;;76.73;35.70;;;;;;;;;;4984828;28;20018;-73
2021/11/01 09:24:41;;;;;;;95.80;44.60;;;;;;;;;;4992432;28;20032;-73
2021/11/01 09:27:09;;;;;;;87.43;40.72;;;;;;;;;;4983245;28;20133;-73
2021/11/01 09:43:07;;;;;;;79.35;39.30;;;;;;;;;;4981154;28;20153;-73
2021/11/01 09:45:36;;;;;;;93.80;42.10;;;;;;;;;;4988940;28;20402;-74
2021/11/01 09:48:02;;;;;;;83.38;39.80;;;;;;;;;;4997787;28;20030;-73
2021/11/01 09:50:28;;;;;;;88.00;40.58;;;;;;;;;;4986210;28;20026;-73
2021/11/01 09:52:59;;;;;;;86.22;39.53;;;;;;;;;;5006131;28;20030;-74
2021/11/01 10:00:52;;;;;;;91.45;42.00;;;;;;;;;;4985799;28;20045;-74
2021/11/01 10:03:17;;;;;;;86.32;41.03;;;;;;;;;;4984993;28;20230;-73
2021/11/01 10:06:00;;;;;;;87.40;40.42;;;;;;;;;;5001649;28;20350;-74
2021/11/01 10:08:26;;;;;;;96.57;41.38;;;;;;;;;;4986802;28;20038;-74
2021/11/01 10:10:52;;;;;;;89.45;40.67;;;;;;;;;;4990417;28;20033;-73
2021/11/01 10:13:18;;;;;;;88.00;39.97;;;;;;;;;;4985161;28;20042;-72
2021/11/01 10:18:29;;;;;;;85.57;39.47;;;;;;;;;;4990547;28;20088;-72
2021/11/01 10:20:59;;;;;;;86.43;40.75;;;;;;;;;;4989949;28;20536;-72
2021/11/01 10:23:32;;;;;;;81.40;37.85;;;;;;;;;;4990007;28;20484;-72
2021/11/01 10:26:17;;;;;;;74.50;37.00;;;;;;;;;;5005139;28;20037;-73
2021/11/01 10:28:50;;;;;;;86.60;38.65;;;;;;;;;;4987794;28;20516;-73
2021/11/01 10:31:24;;;;;;;83.47;38.05;;;;;;;;;;4988075;28;20528;-73
2021/11/01 10:34:03;;;;;;;81.05;37.63;;;;;;;;;;4988013;28;20082;-72
2021/11/01 10:36:34;;;;;;;93.07;40.97;;;;;;;;;;4997188;28;20058;-74
2021/11/01 10:39:07;;;;;;;81.07;37.70;;;;;;;;;;4986559;28;20027;-72
2021/11/01 10:42:04;;;;;;;86.97;38.55;;;;;;;;;;5005586;28;20042;-75
2021/11/01 11:15:11;;;;;;;73.75;35.40;;;;;;;;;;4981702;28;20033;-72
2021/11/01 11:47:35;;;;;;;88.40;37.97;;;;;;;;;;4975011;28;20049;-74
2021/11/01 11:50:15;;;;;;;92.95;38.70;;;;;;;;;;5013076;28;20066;-73
2021/11/01 11:52:41;;;;;;;75.78;37.42;;;;;;;;;;4991062;28;20022;-73
2021/11/01 11:55:28;;;;;;;84.55;37.42;;;;;;;;;;5012962;28;20030;-73
2021/11/01 11:58:03;;;;;;;84.32;36.95;;;;;;;;;;4990293;28;20124;-72
2021/11/01 12:00:32;;;;;;;72.32;36.20;;;;;;;;;;5003660;28;20112;-72
2021/11/01 12:03:18;;;;;;;96.50;37.45;;;;;;;;;;5007219;28;20022;-73
2021/11/01 12:05:58;;;;;;;83.40;39.08;;;;;;;;;;5009208;28;20056;-72
2021/11/01 12:08:40;;;;;;;72.53;35.00;;;;;;;;;;4979736;28;20550;-72
2021/11/01 12:19:15;;;;;;;78.03;36.30;;;;;;;;;;4987539;28;20117;-73
2021/11/01 12:21:42;;;;;;;78.22;38.28;;;;;;;;;;5001644;28;20139;-73
2021/11/01 12:24:10;;;;;;;74.13;35.35;;;;;;;;;;4997826;28;20036;-72
2021/11/01 12:26:38;;;;;;;76.88;38.05;;;;;;;;;;4982117;28;20037;-74
2021/11/01 12:29:10;;;;;;;76.13;37.13;;;;;;;;;;5010995;28;20038;-74
2021/11/01 12:31:36;;;;;;;78.90;39.15;;;;;;;;;;4986473;28;20076;-73
2021/11/01 12:34:14;;;;;;;80.28;37.65;;;;;;;;;;5008727;28;20093;-74
2021/11/01 12:36:52;;;;;;;75.95;35.78;;;;;;;;;;4992186;28;20132;-73
2021/11/01 12:39:31;;;;;;;72.88;36.60;;;;;;;;;;5005752;28;20030;-73
2021/11/01 12:58:01;;;;;;;80.80;37.25;;;;;;;;;;4984628;28;20044;-74
2021/11/01 13:00:38;;;;;;;83.63;37.60;;;;;;;;;;4991049;28;20030;-73
2021/11/01 13:03:17;;;;;;;75.20;34.80;;;;;;;;;;4998848;28;20030;-74
2021/11/01 13:05:51;;;;;;;70.68;34.55;;;;;;;;;;4993829;28;20489;-74
2021/11/01 13:08:41;;;;;;;78.03;37.58;;;;;;;;;;4987900;28;20031;-72
2021/11/01 13:11:28;;;;;;;83.05;38.63;;;;;;;;;;4984967;28;20069;-72
2021/11/01 13:19:26;;;;;;;77.75;37.05;;;;;;;;;;4982603;28;20040;-74
2021/11/01 13:22:14;;;;;;;74.38;36.17;;;;;;;;;;4981871;28;20030;-73
2021/11/01 13:36:29;;;;;;;81.55;37.72;;;;;;;;;;4987347;28;20190;-73
2021/11/01 13:38:58;;;;;;;80.15;38.90;;;;;;;;;;4992059;28;20038;-74
2021/11/01 13:43:53;;;;;;;90.78;39.72;;;;;;;;;;4990343;28;20069;-73
2021/11/01 13:46:26;;;;;;;77.15;37.67;;;;;;;;;;4990584;28;20038;-73
2021/11/01 13:48:57;;;;;;;82.93;39.30;;;;;;;;;;4983276;28;20686;-73
2021/11/01 13:51:23;;;;;;;88.00;39.00;;;;;;;;;;4995263;28;20057;-73
2021/11/01 13:56:46;;;;;;;96.57;40.10;;;;;;;;;;4990103;28;20081;-73
2021/11/01 14:18:18;;;;;;;100.27;42.20;;;;;;;;;;4985222;28;20518;-75
2021/11/01 15:16:40;;;;;;;110.13;43.87;;;;;;;;;;4993612;28;20460;-74
2021/11/01 15:40:48;;;;;;;139.80;46.03;;;;;;;;;;4993075;28;20041;-73
2021/11/01 16:18:42;;;;;;;113.13;49.07;;;;;;;;;;4988675;28;20037;-72
2021/11/01 16:21:09;;;;;;;118.47;50.93;;;;;;;;;;4986932;28;20087;-72
2021/11/01 16:23:38;;;;;;;109.93;50.80;;;;;;;;;;5002407;28;20033;-73
2021/11/01 16:26:29;;;;;;;113.17;50.40;;;;;;;;;;4998082;28;20129;-70
2021/11/01 16:29:09;;;;;;;110.43;50.20;;;;;;;;;;5005389;28;20072;-70
2021/11/01 16:34:14;;;;;;;124.83;48.93;;;;;;;;;;4989039;28;20100;-71
2021/11/01 16:37:14;;;;;;;115.57;51.40;;;;;;;;;;5001657;28;20057;-71
2021/11/01 16:39:49;;;;;;;123.20;52.60;;;;;;;;;;4990859;28;20529;-70
2021/11/01 16:42:23;;;;;;;125.83;53.20;;;;;;;;;;4988218;28;20030;-71
2021/11/01 16:44:49;;;;;;;132.83;55.63;;;;;;;;;;4990067;28;20460;-69
2021/11/01 16:47:17;;;;;;;141.30;56.90;;;;;;;;;;5010135;28;20227;-71
2021/11/01 16:49:45;;;;;;;151.40;60.50;;;;;;;;;;4989282;28;20081;-72
2021/11/01 16:52:15;;;;;;;136.83;58.27;;;;;;;;;;4988645;28;20109;-74
2021/11/01 16:54:43;;;;;;;146.03;63.20;;;;;;;;;;4987744;28;20057;-73
2021/11/01 16:57:18;;;;;;;156.87;63.90;;;;;;;;;;4990522;28;20045;-75
2021/11/01 17:02:31;;;;;;;153.97;60.73;;;;;;;;;;4990881;28;20033;-74
2021/11/01 17:05:48;;;;;;;152.33;61.77;;;;;;;;;;5010429;28;20030;-73
2021/11/01 17:08:13;;;;;;;161.83;65.13;;;;;;;;;;5009568;28;20042;-72
2021/11/01 18:40:56;;;;;;;248.03;83.17;;;;;;;;;;4993803;28;20109;-76
2021/11/01 18:51:32;;;;;;;260.60;84.13;;;;;;;;;;4994415;28;20041;-77
2021/11/01 18:54:18;;;;;;;254.57;86.83;;;;;;;;;;4988552;28;20042;-76
2021/11/01 18:56:44;;;;;;;243.87;80.27;;;;;;;;;;4989916;28;20141;-78
2021/11/01 18:59:11;;;;;;;250.13;82.90;;;;;;;;;;5005670;28;20034;-78
2021/11/01 19:01:42;;;;;;;263.00;88.30;;;;;;;;;;4988389;28;20034;-77
2021/11/01 19:04:16;;;;;;;264.23;90.32;;;;;;;;;;5004670;28;20502;-81
2021/11/01 20:04:46;;;;;;;259.00;83.93;;;;;;;;;;4991601;28;20082;-76
2021/11/01 21:27:08;;;;;;;230.40;75.50;;;;;;;;;;4986255;28;20132;-75
2021/11/01 21:29:36;;;;;;;234.37;82.17;;;;;;;;;;4993939;28;20034;-74
2021/11/01 21:32:03;;;;;;;238.03;78.90;;;;;;;;;;4989781;28;20014;-76
2021/11/01 21:34:37;;;;;;;224.53;77.10;;;;;;;;;;5003775;28;20503;-75
2021/11/01 21:37:05;;;;;;;224.73;75.57;;;;;;;;;;4989679;28;20495;-76
2021/11/01 21:39:32;;;;;;;242.87;77.70;;;;;;;;;;4988777;28;20038;-76
2021/11/01 21:41:58;;;;;;;221.70;72.67;;;;;;;;;;5001085;28;20031;-75
2021/11/01 21:44:24;;;;;;;233.63;77.20;;;;;;;;;;4984034;28;20456;-76
2021/11/01 21:46:50;;;;;;;227.73;74.90;;;;;;;;;;4991806;28;20465;-74
2021/11/01 21:49:16;;;;;;;206.17;68.50;;;;;;;;;;4996780;28;20027;-75
2021/11/01 21:51:43;;;;;;;190.47;65.23;;;;;;;;;;4996589;28;20033;-76
2021/11/01 21:56:38;;;;;;;175.27;60.07;;;;;;;;;;4996923;28;20026;-75
2021/11/01 21:59:17;;;;;;;169.97;56.70;;;;;;;;;;5008139;28;20030;-75
2021/11/01 22:10:00;;;;;;;123.70;41.20;;;;;;;;;;4996699;28;20026;-76
2021/11/01 22:20:29;;;;;;;97.97;31.43;;;;;;;;;;4998126;28;20037;-75
2021/11/01 22:25:24;;;;;;;91.53;32.60;;;;;;;;;;4996976;28;20484;-75
2021/11/01 22:57:14;;;;;;;39.57;14.23;;;;;;;;;;4976908;28;20050;-74
2021/11/01 22:59:40;;;;;;;43.63;16.13;;;;;;;;;;5004159;28;20031;-75
2021/11/01 23:02:07;;;;;;;70.63;23.87;;;;;;;;;;5003062;28;20494;-75
2021/11/01 23:32:03;;;;;;;53.87;19.10;;;;;;;;;;4991918;28;20041;-76
2021/11/01 23:34:29;;;;;;;58.80;17.47;;;;;;;;;;4990705;28;20046;-77
2021/11/01 23:36:56;;;;;;;50.83;18.47;;;;;;;;;;4988221;28;20110;-76
2021/11/01 23:39:22;;;;;;;52.57;18.37;;;;;;;;;;4972722;28;20390;-76
2021/11/01 23:41:52;;;;;;;54.40;18.50;;;;;;;;;;4979532;28;20069;-76
2021/11/01 23:44:18;;;;;;;49.57;16.43;;;;;;;;;;4990759;28;20046;-75
2021/11/01 23:46:44;;;;;;;53.13;17.83;;;;;;;;;;4990647;28;20045;-73
2021/11/01 23:49:10;;;;;;;48.40;17.23;;;;;;;;;;4991030;28;20034;-76
2021/11/01 23:51:37;;;;;;;48.27;17.70;;;;;;;;;;4991904;28;20458;-75
2021/11/01 23:56:38;;;;;;;52.77;17.37;;;;;;;;;;4992071;28;20030;-76
2021/11/01 23:59:03;;;;;;;41.27;14.73;;;;;;;;;;4991641;28;20042;-76
